Time;durP1;ratioP1;P1;durP2;ratioP2;P2;SDS_P1;SDS_P2;PMS_P1;PMS_P2;Temp;Humidity;BMP_temperature;BMP_pressure;BME280_temperature;BME280_humidity;BME280_pressure;Samples;Min_cycle;Max_cycle;Signal;HPM_P1;HPM_P2
2024/02/22 00:02:17;;;;;;;0.80;0.60;;;8.90;99.90;;;;;;5054978;28;20393;-75
2024/02/22 00:04:43;;;;;;;0.90;0.57;;;8.90;99.90;;;;;;5055153;28;20171;-75
2024/02/22 00:07:10;;;;;;;0.90;0.60;;;9.00;99.90;;;;;;5054571;28;20422;-74
2024/02/22 00:09:36;;;;;;;1.00;0.60;;;9.00;99.90;;;;;;5054101;28;20425;-74
2024/02/22 00:12:02;;;;;;;2.40;0.60;;;9.10;99.90;;;;;;5054458;28;20466;-74
2024/02/22 00:14:28;;;;;;;0.83;0.50;;;9.00;99.90;;;;;;5053876;28;20199;-75
2024/02/22 00:16:54;;;;;;;1.10;0.70;;;9.00;99.90;;;;;;5055042;28;20429;-74
2024/02/22 00:19:20;;;;;;;0.80;0.50;;;9.00;99.90;;;;;;5054986;28;20534;-75
2024/02/22 00:21:45;;;;;;;0.70;0.50;;;9.10;99.90;;;;;;5054820;28;20399;-74
2024/02/22 00:24:11;;;;;;;2.07;0.50;;;9.20;99.90;;;;;;5055222;28;20255;-75
2024/02/22 00:26:36;;;;;;;0.70;0.50;;;9.20;99.90;;;;;;5054369;28;20190;-74
2024/02/22 00:29:02;;;;;;;1.83;0.70;;;9.20;99.90;;;;;;5054854;28;20171;-74
2024/02/22 00:31:27;;;;;;;1.40;0.90;;;9.20;99.90;;;;;;5054775;28;20167;-74
2024/02/22 00:33:53;;;;;;;0.80;0.60;;;9.30;99.90;;;;;;5054729;28;20198;-75
2024/02/22 00:36:19;;;;;;;0.70;0.50;;;9.20;99.90;;;;;;5053337;28;20255;-75
2024/02/22 00:38:45;;;;;;;1.13;0.70;;;9.30;99.90;;;;;;5054779;28;20805;-74
2024/02/22 00:41:10;;;;;;;1.90;0.70;;;9.20;99.90;;;;;;5055095;28;20175;-75
2024/02/22 00:43:36;;;;;;;0.90;0.70;;;9.20;99.90;;;;;;5053844;28;20238;-74
2024/02/22 00:46:01;;;;;;;0.90;0.67;;;9.30;99.90;;;;;;5054602;28;20535;-74
2024/02/22 00:48:27;;;;;;;2.73;0.60;;;9.30;99.90;;;;;;5054782;28;20178;-74
2024/02/22 00:50:52;;;;;;;0.90;0.70;;;9.40;99.90;;;;;;5047559;28;20207;-75
2024/02/22 00:53:18;;;;;;;0.70;0.50;;;9.40;99.90;;;;;;5053138;28;20202;-75
2024/02/22 00:55:43;;;;;;;0.80;0.53;;;9.30;99.90;;;;;;5054784;28;20452;-75
2024/02/22 00:58:10;;;;;;;2.07;0.87;;;9.30;99.90;;;;;;5054704;28;20717;-74
2024/02/22 01:00:35;;;;;;;1.53;0.60;;;9.30;99.90;;;;;;5054331;28;20163;-75
2024/02/22 01:03:02;;;;;;;0.83;0.60;;;9.40;99.90;;;;;;5053355;28;20600;-75
2024/02/22 01:05:28;;;;;;;0.90;0.50;;;9.50;99.90;;;;;;5054167;28;20163;-75
2024/02/22 01:07:53;;;;;;;1.50;0.70;;;9.50;99.90;;;;;;5053815;28;20468;-74
2024/02/22 01:10:19;;;;;;;0.70;0.50;;;9.50;99.90;;;;;;5053588;28;20249;-75
2024/02/22 01:12:44;;;;;;;0.70;0.50;;;9.60;99.90;;;;;;5053828;28;20186;-75
2024/02/22 01:15:10;;;;;;;0.80;0.60;;;9.50;99.90;;;;;;5053739;28;20634;-74
2024/02/22 01:17:36;;;;;;;0.80;0.67;;;9.60;99.90;;;;;;5053125;28;20189;-74
2024/02/22 01:20:02;;;;;;;0.80;0.57;;;9.60;99.90;;;;;;5053362;28;20167;-74
2024/02/22 01:22:27;;;;;;;0.70;0.50;;;9.60;99.90;;;;;;5052817;28;20743;-74
2024/02/22 01:24:53;;;;;;;0.70;0.57;;;9.70;99.90;;;;;;5053172;28;20856;-75
2024/02/22 01:27:18;;;;;;;0.70;0.50;;;9.70;99.90;;;;;;5053087;28;20187;-75
2024/02/22 01:29:44;;;;;;;0.80;0.60;;;9.60;99.90;;;;;;5052691;28;20238;-73
2024/02/22 01:32:09;;;;;;;0.80;0.50;;;9.70;99.90;;;;;;5050571;28;20162;-73
2024/02/22 01:34:35;;;;;;;0.80;0.60;;;9.80;99.90;;;;;;5051846;28;20194;-73
2024/02/22 01:37:00;;;;;;;0.80;0.70;;;9.80;99.90;;;;;;5051882;28;20815;-73
2024/02/22 01:39:26;;;;;;;1.10;0.50;;;9.80;99.90;;;;;;5051922;28;20163;-73
2024/02/22 01:41:51;;;;;;;2.83;1.13;;;9.80;99.90;;;;;;5051587;28;20163;-73
2024/02/22 01:44:17;;;;;;;0.90;0.53;;;9.80;99.90;;;;;;5051873;28;20171;-73
2024/02/22 01:46:42;;;;;;;0.80;0.60;;;9.90;99.90;;;;;;5051754;28;20183;-73
2024/02/22 01:49:08;;;;;;;0.80;0.70;;;9.80;99.90;;;;;;5051105;28;20171;-73
2024/02/22 01:51:34;;;;;;;0.80;0.60;;;9.90;99.90;;;;;;5047533;28;20183;-73
2024/02/22 01:54:00;;;;;;;0.70;0.50;;;9.90;99.90;;;;;;5051275;28;20216;-73
2024/02/22 01:56:28;;;;;;;0.90;0.67;;;9.90;99.90;;;;;;5051638;28;20854;-73
2024/02/22 01:58:54;;;;;;;1.00;0.60;;;9.90;99.90;;;;;;5050704;28;20783;-73
2024/02/22 02:01:22;;;;;;;0.90;0.63;;;9.90;99.90;;;;;;5050103;28;20413;-73
2024/02/22 02:03:49;;;;;;;0.80;0.57;;;10.00;99.90;;;;;;5051682;28;20163;-73
2024/02/22 02:06:15;;;;;;;0.70;0.50;;;10.00;99.90;;;;;;5052100;28;20773;-73
2024/02/22 02:08:40;;;;;;;0.90;0.60;;;9.90;99.90;;;;;;5051575;28;20768;-73
2024/02/22 02:11:06;;;;;;;0.80;0.60;;;9.90;99.90;;;;;;5050666;28;20409;-73
2024/02/22 02:13:31;;;;;;;0.80;0.60;;;9.90;99.90;;;;;;5051458;28;20561;-73
2024/02/22 02:15:57;;;;;;;0.70;0.50;;;9.90;99.90;;;;;;5054780;28;20165;-72
2024/02/22 02:18:22;;;;;;;0.80;0.50;;;9.90;99.90;;;;;;5055622;28;20246;-72
2024/02/22 02:21:26;;;;;;;1.10;0.60;;;9.90;99.90;;;;;;5055329;28;20721;-72
2024/02/22 02:24:13;;;;;;;2.97;0.60;;;10.00;99.90;;;;;;5055489;28;20175;-72
2024/02/22 02:26:38;;;;;;;0.70;0.50;;;9.90;99.90;;;;;;5055346;28;20846;-72
2024/02/22 02:29:04;;;;;;;0.70;0.50;;;9.90;99.90;;;;;;5055350;28;20499;-72
2024/02/22 02:31:29;;;;;;;1.83;0.70;;;9.90;99.90;;;;;;5053857;28;20203;-73
2024/02/22 02:33:55;;;;;;;0.70;0.57;;;9.90;99.90;;;;;;5055277;28;20202;-72
2024/02/22 02:36:20;;;;;;;0.77;0.53;;;9.80;99.90;;;;;;5055120;28;20187;-72
2024/02/22 02:38:46;;;;;;;1.40;1.30;;;9.80;99.90;;;;;;5055047;28;20167;-72
2024/02/22 02:41:11;;;;;;;1.97;0.60;;;9.90;99.90;;;;;;5054843;28;20202;-72
2024/02/22 02:43:37;;;;;;;0.80;0.60;;;9.80;99.90;;;;;;5054875;28;20541;-72
2024/02/22 02:46:02;;;;;;;0.70;0.50;;;9.80;99.90;;;;;;5055018;28;20679;-72
2024/02/22 02:48:28;;;;;;;0.77;0.53;;;9.90;99.90;;;;;;5053727;28;20179;-72
2024/02/22 02:50:54;;;;;;;0.70;0.50;;;9.80;99.90;;;;;;5051487;28;20261;-73
2024/02/22 02:53:21;;;;;;;0.70;0.50;;;9.80;99.90;;;;;;5054470;28;20203;-72
2024/02/22 02:55:47;;;;;;;0.80;0.50;;;9.90;99.90;;;;;;5053320;28;20177;-72
2024/02/22 02:58:13;;;;;;;0.70;0.50;;;9.90;99.90;;;;;;5054811;28;20515;-73
2024/02/22 03:00:38;;;;;;;0.97;0.60;;;10.00;99.90;;;;;;5054619;28;20182;-72
2024/02/22 03:03:04;;;;;;;0.70;0.50;;;10.00;99.90;;;;;;5054780;28;20221;-72
2024/02/22 03:05:30;;;;;;;0.70;0.60;;;10.00;99.90;;;;;;5054817;28;20228;-72
2024/02/22 03:07:55;;;;;;;1.00;0.57;;;10.00;99.90;;;;;;5054351;28;20191;-72
2024/02/22 03:10:21;;;;;;;0.70;0.50;;;10.00;99.90;;;;;;5054284;28;20224;-72
2024/02/22 03:12:47;;;;;;;0.90;0.70;;;10.10;99.90;;;;;;5054504;28;20585;-72
2024/02/22 03:15:13;;;;;;;0.70;0.50;;;10.20;99.90;;;;;;5054578;28;20653;-72
2024/02/22 03:17:39;;;;;;;0.70;0.50;;;10.20;99.90;;;;;;5054349;28;20211;-72
2024/02/22 03:20:09;;;;;;;0.90;0.60;;;10.20;99.90;;;;;;5054485;28;20868;-72
2024/02/22 03:22:36;;;;;;;0.70;0.50;;;10.10;99.90;;;;;;5054346;28;20610;-72
2024/02/22 03:25:01;;;;;;;1.20;0.70;;;10.10;99.90;;;;;;5053784;28;20400;-72
2024/02/22 03:27:27;;;;;;;0.80;0.63;;;10.10;99.90;;;;;;5054326;28;20421;-72
2024/02/22 03:29:53;;;;;;;0.70;0.50;;;10.10;99.90;;;;;;5054296;28;20195;-72
2024/02/22 03:32:18;;;;;;;0.80;0.50;;;10.20;99.90;;;;;;5054192;28;20253;-72
2024/02/22 03:34:44;;;;;;;0.80;0.60;;;10.10;99.90;;;;;;5054213;28;20199;-72
2024/02/22 03:37:12;;;;;;;0.90;0.60;;;10.20;99.90;;;;;;5052795;28;20198;-73
2024/02/22 03:39:39;;;;;;;0.70;0.50;;;10.10;99.90;;;;;;5054117;28;20167;-73
2024/02/22 03:42:04;;;;;;;0.70;0.60;;;10.10;99.90;;;;;;5053777;28;20412;-72
2024/02/22 03:44:30;;;;;;;0.90;0.60;;;10.20;99.90;;;;;;5052706;28;20414;-72
2024/02/22 03:46:55;;;;;;;0.70;0.50;;;10.20;99.90;;;;;;5053900;28;20214;-72
2024/02/22 03:49:21;;;;;;;0.80;0.50;;;10.10;99.90;;;;;;5053843;28;20179;-72
2024/02/22 03:51:46;;;;;;;0.80;0.50;;;10.10;99.90;;;;;;5042582;28;20196;-72
2024/02/22 03:54:12;;;;;;;0.70;0.60;;;10.10;99.90;;;;;;5053447;28;20678;-72
2024/02/22 03:56:38;;;;;;;0.90;0.60;;;10.10;99.90;;;;;;5053843;28;20690;-72
2024/02/22 03:59:03;;;;;;;0.83;0.60;;;10.10;99.90;;;;;;5052523;28;20261;-72
2024/02/22 04:01:30;;;;;;;0.80;0.50;;;10.10;99.90;;;;;;5053503;28;20205;-72
2024/02/22 04:03:55;;;;;;;0.80;0.70;;;10.10;99.90;;;;;;5053650;28;20200;-72
2024/02/22 04:06:21;;;;;;;1.10;0.60;;;10.20;99.90;;;;;;5053571;28;20421;-72
2024/02/22 04:08:47;;;;;;;0.83;0.83;;;10.10;99.90;;;;;;5053550;28;20205;-72
2024/02/22 04:11:12;;;;;;;0.80;0.60;;;10.10;99.90;;;;;;5053359;28;20178;-72
2024/02/22 04:13:38;;;;;;;0.70;0.50;;;10.10;99.90;;;;;;5052113;28;20210;-72
2024/02/22 04:16:05;;;;;;;0.80;0.60;;;10.20;99.90;;;;;;5053406;28;20167;-73
2024/02/22 04:18:31;;;;;;;0.80;0.60;;;10.20;99.90;;;;;;5053428;28;20940;-72
2024/02/22 04:20:56;;;;;;;0.73;0.53;;;10.20;99.90;;;;;;5053222;28;20444;-72
2024/02/22 04:23:22;;;;;;;0.70;0.50;;;10.10;99.90;;;;;;5053331;28;20175;-71
2024/02/22 04:25:47;;;;;;;0.70;0.50;;;10.10;99.90;;;;;;5053269;28;20570;-72
2024/02/22 04:28:17;;;;;;;1.00;0.67;;;10.20;99.90;;;;;;5053138;28;20605;-72
2024/02/22 04:30:45;;;;;;;0.90;0.50;;;10.10;99.90;;;;;;5052997;28;20151;-72
2024/02/22 04:33:11;;;;;;;0.70;0.50;;;10.20;99.90;;;;;;5053032;28;20556;-72
2024/02/22 04:35:36;;;;;;;0.80;0.50;;;10.30;99.90;;;;;;5053146;28;20433;-71
2024/02/22 04:38:02;;;;;;;0.70;0.50;;;10.20;99.90;;;;;;5052042;28;20468;-72
2024/02/22 04:40:28;;;;;;;0.70;0.50;;;10.30;99.90;;;;;;5052852;28;20243;-72
2024/02/22 04:42:53;;;;;;;0.80;0.60;;;10.10;99.90;;;;;;5052878;28;20179;-72
2024/02/22 04:45:19;;;;;;;0.70;0.50;;;10.20;99.90;;;;;;5052883;28;20199;-72
2024/02/22 04:47:44;;;;;;;0.70;0.50;;;10.20;99.90;;;;;;5052746;28;20191;-72
2024/02/22 04:50:10;;;;;;;0.77;0.53;;;10.20;99.90;;;;;;5049727;28;20182;-72
2024/02/22 04:52:36;;;;;;;0.93;0.50;;;10.20;99.90;;;;;;5048246;28;20186;-72
2024/02/22 04:55:03;;;;;;;2.60;0.70;;;10.20;99.90;;;;;;5051418;28;20780;-71
2024/02/22 04:57:29;;;;;;;1.00;0.57;;;10.10;99.90;;;;;;5052628;28;20291;-72
2024/02/22 04:59:54;;;;;;;0.90;0.70;;;10.00;99.90;;;;;;5052621;28;20539;-71
2024/02/22 05:02:21;;;;;;;0.70;0.50;;;9.90;99.90;;;;;;5049330;28;20413;-72
2024/02/22 05:04:46;;;;;;;0.70;0.50;;;9.90;99.90;;;;;;5052467;28;20406;-72
2024/02/22 05:07:13;;;;;;;0.70;0.60;;;9.80;99.90;;;;;;5052263;28;20433;-72
2024/02/22 05:09:38;;;;;;;0.83;0.60;;;9.80;99.90;;;;;;5052493;28;20169;-72
2024/02/22 05:12:04;;;;;;;0.70;0.50;;;9.80;99.90;;;;;;5052221;28;20889;-71
2024/02/22 05:14:30;;;;;;;1.93;0.60;;;9.80;99.90;;;;;;5052199;28;20279;-72
2024/02/22 05:16:55;;;;;;;1.33;0.60;;;9.80;99.90;;;;;;5050936;28;20433;-72
2024/02/22 05:19:21;;;;;;;1.53;0.70;;;9.80;99.90;;;;;;5052292;28;20680;-73
2024/02/22 05:21:51;;;;;;;0.80;0.67;;;9.80;99.90;;;;;;5050855;28;20170;-72
2024/02/22 05:24:17;;;;;;;0.80;0.70;;;9.90;99.90;;;;;;5052245;28;20171;-72
2024/02/22 05:26:43;;;;;;;0.80;0.60;;;9.80;99.90;;;;;;5050816;28;20808;-72
2024/02/22 05:29:08;;;;;;;0.70;0.60;;;9.90;99.90;;;;;;5052162;28;20401;-72
2024/02/22 05:31:34;;;;;;;0.70;0.67;;;9.90;99.90;;;;;;5052130;28;20171;-72
2024/02/22 05:34:00;;;;;;;2.00;1.60;;;9.90;99.90;;;;;;5051985;28;20198;-73
2024/02/22 05:36:25;;;;;;;1.93;0.70;;;10.00;99.90;;;;;;5051875;28;20233;-72
2024/02/22 05:38:51;;;;;;;0.80;0.63;;;10.00;99.90;;;;;;5052034;28;20597;-71
2024/02/22 05:41:16;;;;;;;0.90;0.67;;;10.00;99.90;;;;;;5050551;28;20220;-72
2024/02/22 05:43:42;;;;;;;1.10;1.00;;;10.00;99.90;;;;;;5051931;28;20309;-71
2024/02/22 05:46:07;;;;;;;0.80;0.60;;;10.00;99.90;;;;;;5051849;28;20228;-72
2024/02/22 05:48:33;;;;;;;3.67;2.40;;;10.00;99.90;;;;;;5051721;28;20175;-71
2024/02/22 05:50:59;;;;;;;0.90;0.80;;;10.00;99.90;;;;;;5051644;28;20171;-72
2024/02/22 05:53:25;;;;;;;2.97;0.70;;;10.00;99.90;;;;;;5051652;28;20467;-72
2024/02/22 05:55:50;;;;;;;1.00;0.80;;;10.00;99.90;;;;;;5051796;28;20511;-72
2024/02/22 05:58:17;;;;;;;0.70;0.60;;;10.00;99.90;;;;;;5051715;28;20186;-72
2024/02/22 06:00:43;;;;;;;0.93;0.80;;;9.90;99.90;;;;;;5051680;28;20155;-72
2024/02/22 06:03:09;;;;;;;0.83;0.70;;;9.90;99.90;;;;;;5050413;28;20775;-72
2024/02/22 06:05:35;;;;;;;1.40;0.93;;;9.90;99.90;;;;;;5051644;28;20776;-72
2024/02/22 06:08:01;;;;;;;0.90;0.70;;;10.00;99.90;;;;;;5050396;28;20629;-72
2024/02/22 06:10:28;;;;;;;3.13;1.33;;;10.00;99.90;;;;;;5051468;28;20405;-71
2024/02/22 06:12:53;;;;;;;1.13;0.70;;;10.00;99.90;;;;;;5051532;28;20559;-71
2024/02/22 06:15:19;;;;;;;1.67;0.80;;;10.10;99.90;;;;;;5051654;28;20406;-71
2024/02/22 06:17:44;;;;;;;0.80;0.60;;;10.10;99.90;;;;;;5051525;28;20266;-72
2024/02/22 06:20:10;;;;;;;2.53;1.30;;;10.20;99.90;;;;;;5051508;28;20171;-71
2024/02/22 06:22:35;;;;;;;0.97;0.73;;;10.20;99.90;;;;;;5050369;28;20522;-71
2024/02/22 06:25:01;;;;;;;1.10;0.80;;;10.20;99.90;;;;;;5051486;28;20163;-71
2024/02/22 06:27:27;;;;;;;1.00;0.70;;;10.10;99.90;;;;;;5051428;28;20187;-71
2024/02/22 06:29:52;;;;;;;3.90;3.17;;;10.10;99.90;;;;;;5051495;28;20171;-71
2024/02/22 06:32:18;;;;;;;0.90;0.70;;;10.10;99.90;;;;;;5051302;28;20167;-71
2024/02/22 06:34:43;;;;;;;0.90;0.70;;;10.20;99.90;;;;;;5050066;28;20243;-71
2024/02/22 06:37:10;;;;;;;0.90;0.70;;;10.20;99.90;;;;;;5051288;28;20180;-71
2024/02/22 06:39:35;;;;;;;0.80;0.70;;;10.20;99.90;;;;;;5051356;28;20218;-72
2024/02/22 06:42:01;;;;;;;0.90;0.60;;;10.30;99.90;;;;;;5051166;28;20830;-72
2024/02/22 06:44:27;;;;;;;6.20;0.70;;;10.30;99.90;;;;;;5051334;28;20163;-72
2024/02/22 06:46:53;;;;;;;1.00;0.83;;;10.30;99.90;;;;;;5051223;28;20482;-72
2024/02/22 06:49:19;;;;;;;1.00;0.63;;;10.30;99.90;;;;;;5051284;28;20167;-71
2024/02/22 06:51:44;;;;;;;1.00;0.80;;;10.30;99.90;;;;;;5051130;28;20178;-71
2024/02/22 06:54:12;;;;;;;0.70;0.50;;;10.30;99.90;;;;;;5051052;28;20948;-72
2024/02/22 06:56:38;;;;;;;0.80;0.57;;;10.30;99.90;;;;;;5051102;28;20232;-71
2024/02/22 06:59:04;;;;;;;1.90;0.73;;;10.30;99.90;;;;;;5051214;28;20397;-71
2024/02/22 07:01:32;;;;;;;0.80;0.50;;;10.40;99.90;;;;;;5053309;28;20412;-71
2024/02/22 07:03:57;;;;;;;1.53;0.60;;;10.40;99.90;;;;;;5053304;28;20178;-72
2024/02/22 07:06:23;;;;;;;1.03;0.80;;;10.50;99.90;;;;;;5054544;28;20421;-71
2024/02/22 07:08:48;;;;;;;0.80;0.60;;;10.50;99.90;;;;;;5054645;28;20171;-71
2024/02/22 07:11:14;;;;;;;0.97;0.87;;;10.40;99.90;;;;;;5054247;28;20570;-72
2024/02/22 07:13:40;;;;;;;12.00;7.43;;;10.40;99.90;;;;;;5054380;28;20197;-71
2024/02/22 07:16:07;;;;;;;1.57;0.70;;;10.60;99.90;;;;;;5054337;28;20831;-72
2024/02/22 07:18:32;;;;;;;0.80;0.70;;;10.60;99.90;;;;;;5054324;28;20903;-71
2024/02/22 07:20:58;;;;;;;0.77;0.53;;;10.60;99.90;;;;;;5054163;28;20409;-71
2024/02/22 07:23:23;;;;;;;0.70;0.53;;;10.50;99.90;;;;;;5052999;28;20174;-71
2024/02/22 07:25:49;;;;;;;0.80;0.50;;;10.60;99.90;;;;;;5054358;28;20191;-71
2024/02/22 07:28:15;;;;;;;1.10;0.60;;;10.70;99.90;;;;;;5054140;28;20187;-71
2024/02/22 07:30:41;;;;;;;0.80;0.63;;;10.60;99.90;;;;;;5054014;28;20163;-72
2024/02/22 07:33:07;;;;;;;0.77;0.50;;;10.70;99.90;;;;;;5054002;28;20445;-71
2024/02/22 07:35:33;;;;;;;0.70;0.50;;;10.70;99.90;;;;;;5054114;28;20815;-72
2024/02/22 07:37:59;;;;;;;0.70;0.50;;;10.80;99.90;;;;;;5053972;28;20207;-71
2024/02/22 07:40:24;;;;;;;0.90;0.67;;;10.80;99.90;;;;;;5053818;28;20820;-71
2024/02/22 07:42:50;;;;;;;0.90;0.63;;;10.80;99.90;;;;;;5054047;28;20641;-71
2024/02/22 07:45:15;;;;;;;0.80;0.50;;;10.80;99.90;;;;;;5053984;28;20174;-71
2024/02/22 07:47:41;;;;;;;0.70;0.53;;;10.70;99.90;;;;;;5053785;28;20193;-71
2024/02/22 07:50:10;;;;;;;0.70;0.60;;;10.80;99.90;;;;;;5052439;28;20170;-72
2024/02/22 07:52:40;;;;;;;0.70;0.50;;;10.70;99.90;;;;;;5053340;28;20244;-71
2024/02/22 07:55:06;;;;;;;0.80;0.60;;;10.70;99.90;;;;;;5053747;28;20480;-71
2024/02/22 07:57:32;;;;;;;0.80;0.60;;;10.80;99.90;;;;;;5053721;28;20428;-71
2024/02/22 07:59:57;;;;;;;0.90;0.60;;;10.80;99.90;;;;;;5053650;28;20398;-71
2024/02/22 08:02:23;;;;;;;1.50;0.67;;;10.80;99.90;;;;;;5053507;28;20654;-72
2024/02/22 08:04:50;;;;;;;1.13;0.70;;;10.90;99.90;;;;;;5053573;28;20193;-71
2024/02/22 08:07:16;;;;;;;0.70;0.50;;;11.00;99.90;;;;;;5053293;28;20430;-69
2024/02/22 08:09:42;;;;;;;0.80;0.60;;;11.10;99.90;;;;;;5052479;28;20452;-68
2024/02/22 08:12:09;;;;;;;0.70;0.50;;;11.20;99.90;;;;;;5053279;28;20410;-68
2024/02/22 08:14:34;;;;;;;0.70;0.50;;;11.40;99.90;;;;;;5052134;28;20273;-68
2024/02/22 08:17:00;;;;;;;0.80;0.60;;;11.50;99.90;;;;;;5053329;28;20512;-69
2024/02/22 08:19:26;;;;;;;0.90;0.70;;;11.50;99.90;;;;;;5053252;28;20163;-68
2024/02/22 08:21:51;;;;;;;0.90;0.70;;;11.70;99.90;;;;;;5053162;28;20233;-68
2024/02/22 08:24:17;;;;;;;1.00;0.63;;;11.80;99.90;;;;;;5052055;28;20179;-69
2024/02/22 08:26:43;;;;;;;1.60;0.70;;;11.80;99.90;;;;;;5053166;28;20222;-69
2024/02/22 08:29:09;;;;;;;1.10;0.70;;;11.90;99.90;;;;;;5053241;28;20171;-68
2024/02/22 08:31:35;;;;;;;1.00;0.73;;;11.80;99.90;;;;;;5052930;28;20162;-68
2024/02/22 08:34:00;;;;;;;2.70;0.80;;;11.70;99.90;;;;;;5052993;28;20448;-68
2024/02/22 08:36:26;;;;;;;0.70;0.60;;;11.70;99.90;;;;;;5053033;28;20187;-68
2024/02/22 08:38:51;;;;;;;0.80;0.60;;;11.70;99.90;;;;;;5053129;28;20167;-67
2024/02/22 08:41:17;;;;;;;0.80;0.60;;;11.70;99.90;;;;;;5052641;28;20185;-68
2024/02/22 08:43:42;;;;;;;0.90;0.80;;;11.70;99.90;;;;;;5052808;28;20178;-69
2024/02/22 08:46:08;;;;;;;1.00;0.70;;;11.80;99.90;;;;;;5052750;28;20174;-68
2024/02/22 08:48:35;;;;;;;0.80;0.70;;;11.90;99.90;;;;;;5052870;28;20250;-68
2024/02/22 08:51:01;;;;;;;0.90;0.60;;;12.00;99.90;;;;;;5052628;28;20163;-68
2024/02/22 08:53:27;;;;;;;0.80;0.60;;;12.00;99.90;;;;;;5052441;28;20459;-68
2024/02/22 08:55:52;;;;;;;0.80;0.73;;;12.10;99.90;;;;;;5052691;28;20404;-68
2024/02/22 08:58:18;;;;;;;1.00;0.90;;;12.20;99.90;;;;;;5052512;28;20197;-68
2024/02/22 09:00:44;;;;;;;1.47;0.90;;;12.30;99.90;;;;;;5052334;28;20159;-68
2024/02/22 09:03:10;;;;;;;3.43;0.90;;;12.50;99.90;;;;;;5052602;28;20596;-72
2024/02/22 09:05:40;;;;;;;4.40;1.00;;;12.60;99.90;;;;;;5051396;28;20417;-68
2024/02/22 09:08:06;;;;;;;1.20;0.80;;;12.80;99.90;;;;;;5052562;28;20720;-68
2024/02/22 09:10:32;;;;;;;0.80;0.70;;;13.00;99.90;;;;;;5051518;28;20433;-67
2024/02/22 09:12:58;;;;;;;1.07;0.90;;;13.00;99.90;;;;;;5052208;28;20500;-67
2024/02/22 09:15:23;;;;;;;1.20;0.70;;;13.00;99.90;;;;;;5052348;28;20571;-68
2024/02/22 09:17:49;;;;;;;2.50;0.70;;;13.10;99.90;;;;;;5052196;28;20187;-68
2024/02/22 09:20:15;;;;;;;0.97;0.80;;;13.10;99.90;;;;;;5052518;28;20190;-68
2024/02/22 09:22:41;;;;;;;2.37;0.90;;;13.20;99.90;;;;;;5050598;28;20163;-68
2024/02/22 09:25:08;;;;;;;0.83;0.70;;;13.40;99.90;;;;;;5051982;28;20406;-68
2024/02/22 09:27:34;;;;;;;2.80;1.07;;;13.40;99.90;;;;;;5050786;28;20183;-68
2024/02/22 09:30:03;;;;;;;0.97;0.73;;;13.50;99.90;;;;;;5052071;28;20496;-68
2024/02/22 09:32:29;;;;;;;1.40;1.00;;;13.90;99.90;;;;;;5051806;28;20242;-68
2024/02/22 09:34:54;;;;;;;0.87;0.70;;;14.40;99.90;;;;;;5052047;28;20586;-68
2024/02/22 09:37:22;;;;;;;1.00;0.90;;;14.70;99.90;;;;;;5051940;28;20555;-68
2024/02/22 09:39:50;;;;;;;7.33;1.00;;;15.00;99.90;;;;;;5052004;28;20159;-68
2024/02/22 09:42:16;;;;;;;2.10;0.70;;;15.00;99.90;;;;;;5051692;28;20424;-68
2024/02/22 09:44:43;;;;;;;0.90;0.80;;;15.10;99.90;;;;;;5051824;28;20908;-68
2024/02/22 09:47:10;;;;;;;2.43;1.00;;;15.20;99.90;;;;;;5051752;28;20413;-68
2024/02/22 09:49:36;;;;;;;1.00;0.80;;;15.20;99.90;;;;;;5051836;28;20433;-68
2024/02/22 09:52:01;;;;;;;1.10;1.00;;;15.10;99.90;;;;;;5051497;28;20833;-68
2024/02/22 09:54:27;;;;;;;1.00;0.77;;;15.00;99.90;;;;;;5051762;28;20611;-68
2024/02/22 09:56:53;;;;;;;1.23;0.73;;;15.00;99.90;;;;;;5051585;28;20213;-68
2024/02/22 09:59:18;;;;;;;1.17;0.93;;;15.00;99.90;;;;;;5051841;28;20163;-68
2024/02/22 10:01:45;;;;;;;2.20;0.90;;;15.00;99.90;;;;;;5051066;28;20405;-68
2024/02/22 10:04:11;;;;;;;0.90;0.80;;;15.00;99.90;;;;;;5051633;28;20229;-67
2024/02/22 10:06:40;;;;;;;1.83;0.70;;;15.40;99.90;;;;;;5051276;28;20417;-68
2024/02/22 10:09:06;;;;;;;3.13;0.80;;;16.00;99.90;;;;;;5051412;28;20881;-68
2024/02/22 10:11:32;;;;;;;3.83;0.90;;;16.60;99.90;;;;;;5051387;28;20463;-68
2024/02/22 10:14:04;;;;;;;0.80;0.70;;;17.30;99.90;;;;;;5050220;28;20555;-68
2024/02/22 10:16:30;;;;;;;0.77;0.60;;;18.80;99.90;;;;;;5051487;28;20527;-69
2024/02/22 10:19:02;;;;;;;0.80;0.60;;;21.50;99.90;;;;;;5051552;28;20404;-68
2024/02/22 10:21:29;;;;;;;0.80;0.60;;;23.90;99.90;;;;;;5051328;28;20402;-68
2024/02/22 10:23:56;;;;;;;0.80;0.57;;;25.40;86.10;;;;;;5051168;28;20409;-68
2024/02/22 10:26:24;;;;;;;0.90;0.70;;;25.60;63.40;;;;;;5051457;28;20500;-66
2024/02/22 10:29:07;;;;;;;0.80;0.60;;;25.20;61.40;;;;;;5040042;28;20418;-66
2024/02/22 10:31:44;;;;;;;0.90;0.60;;;24.00;59.10;;;;;;5051240;28;20433;-65
2024/02/22 10:34:11;;;;;;;0.80;0.60;;;21.90;64.50;;;;;;5051384;28;20452;-65
2024/02/22 10:36:37;;;;;;;0.80;0.60;;;20.60;98.10;;;;;;5054022;28;20419;-67
2024/02/22 10:39:03;;;;;;;0.70;0.50;;;19.70;99.90;;;;;;5055375;28;20402;-68
2024/02/22 10:41:29;;;;;;;0.80;0.50;;;18.60;99.90;;;;;;5054990;28;20171;-68
2024/02/22 10:43:55;;;;;;;0.80;0.60;;;18.30;99.90;;;;;;5055107;28;20450;-68
2024/02/22 10:46:26;;;;;;;0.70;0.50;;;18.60;99.90;;;;;;5055120;28;20826;-68
2024/02/22 10:48:51;;;;;;;0.70;0.50;;;19.00;99.90;;;;;;5055150;28;20805;-68
2024/02/22 10:51:22;;;;;;;0.90;0.60;;;19.10;99.90;;;;;;5054841;28;20437;-67
2024/02/22 10:53:56;;;;;;;0.80;0.60;;;19.30;99.90;;;;;;5054876;28;20696;-68
2024/02/22 10:56:25;;;;;;;0.70;0.60;;;19.40;99.90;;;;;;5054974;28;20904;-68
2024/02/22 10:59:02;;;;;;;0.70;0.50;;;19.20;99.90;;;;;;5054929;28;20398;-68
2024/02/22 11:01:30;;;;;;;0.70;0.50;;;18.90;99.90;;;;;;5041395;28;20425;-68
2024/02/22 11:03:56;;;;;;;0.80;0.50;;;18.60;99.90;;;;;;5034918;28;20403;-68
2024/02/22 11:06:22;;;;;;;1.10;0.80;;;18.20;99.90;;;;;;5035068;28;20969;-68
2024/02/22 11:08:49;;;;;;;0.90;0.60;;;17.70;99.90;;;;;;5034927;28;20493;-68
2024/02/22 11:11:28;;;;;;;2.13;0.60;;;17.30;99.90;;;;;;5034556;28;20190;-68
2024/02/22 11:13:59;;;;;;;0.90;0.73;;;17.00;99.90;;;;;;5034582;28;20549;-68
2024/02/22 11:16:37;;;;;;;1.87;0.70;;;16.80;99.90;;;;;;5038006;28;20433;-68
2024/02/22 11:19:14;;;;;;;1.83;0.60;;;16.80;99.90;;;;;;5045278;28;20398;-68
2024/02/22 11:21:51;;;;;;;0.80;0.60;;;16.60;99.90;;;;;;5044804;28;20409;-67
2024/02/22 11:24:21;;;;;;;1.10;0.60;;;16.40;99.90;;;;;;5044660;28;20451;-67
2024/02/22 11:26:47;;;;;;;0.70;0.50;;;16.00;99.90;;;;;;5034381;28;20841;-68
2024/02/22 11:29:13;;;;;;;0.80;0.60;;;15.80;99.90;;;;;;5034447;28;20521;-67
2024/02/22 11:31:38;;;;;;;2.33;0.70;;;15.70;99.90;;;;;;5034127;28;20246;-67
2024/02/22 11:34:05;;;;;;;0.73;0.50;;;15.70;99.90;;;;;;5032991;28;20533;-67
2024/02/22 11:36:31;;;;;;;0.83;0.70;;;15.50;99.90;;;;;;5034314;28;20226;-67
2024/02/22 11:38:58;;;;;;;0.77;0.53;;;15.50;99.90;;;;;;5034181;28;20430;-67
2024/02/22 11:41:24;;;;;;;0.90;0.50;;;15.40;99.90;;;;;;5033932;28;20171;-67
2024/02/22 11:43:50;;;;;;;0.90;0.60;;;15.40;99.90;;;;;;5034100;28;20781;-67
2024/02/22 11:46:15;;;;;;;2.00;0.70;;;15.30;99.90;;;;;;5033703;28;20283;-68
2024/02/22 11:48:43;;;;;;;0.80;0.50;;;15.40;99.90;;;;;;5034066;28;20262;-67
2024/02/22 11:51:08;;;;;;;0.73;0.53;;;15.50;99.90;;;;;;5033825;28;20174;-67
2024/02/22 11:53:34;;;;;;;0.70;0.50;;;15.50;99.90;;;;;;5033759;28;20458;-68
2024/02/22 11:55:59;;;;;;;0.70;0.50;;;15.50;99.90;;;;;;5033886;28;20171;-67
2024/02/22 11:58:26;;;;;;;1.27;0.60;;;15.50;99.90;;;;;;5033677;28;20569;-67
2024/02/22 12:00:52;;;;;;;0.80;0.60;;;15.60;99.90;;;;;;5033603;28;20167;-68
2024/02/22 12:03:17;;;;;;;0.80;0.50;;;15.60;99.90;;;;;;5033787;28;20850;-67
2024/02/22 12:05:43;;;;;;;0.80;0.50;;;15.50;99.90;;;;;;5033719;28;20280;-68
2024/02/22 12:08:10;;;;;;;0.70;0.50;;;15.40;99.90;;;;;;5033535;28;20274;-67
2024/02/22 12:10:37;;;;;;;0.80;0.60;;;15.40;99.90;;;;;;5033330;28;20418;-67
2024/02/22 12:13:03;;;;;;;0.70;0.50;;;15.50;99.90;;;;;;5033721;28;20484;-67
2024/02/22 12:15:29;;;;;;;0.90;0.60;;;15.50;99.90;;;;;;5032233;28;20420;-67
2024/02/22 12:17:54;;;;;;;0.80;0.60;;;15.40;99.90;;;;;;5033406;28;20422;-68
2024/02/22 12:20:21;;;;;;;0.70;0.50;;;15.30;99.90;;;;;;5033437;28;20164;-67
2024/02/22 12:22:47;;;;;;;0.80;0.70;;;15.30;99.90;;;;;;5033122;28;20166;-67
2024/02/22 12:25:13;;;;;;;0.70;0.50;;;15.30;99.90;;;;;;5033388;28;20418;-67
2024/02/22 12:27:39;;;;;;;1.47;0.67;;;15.10;99.90;;;;;;5033286;28;20189;-68
2024/02/22 12:30:05;;;;;;;0.90;0.60;;;15.10;99.90;;;;;;5033281;28;20199;-68
2024/02/22 12:32:30;;;;;;;0.90;0.50;;;15.00;99.90;;;;;;5032934;28;20456;-67
2024/02/22 12:34:57;;;;;;;0.90;0.60;;;15.00;99.90;;;;;;5033101;28;20457;-68
2024/02/22 12:37:23;;;;;;;0.70;0.50;;;15.00;99.90;;;;;;5033107;28;20184;-67
2024/02/22 12:39:49;;;;;;;0.70;0.50;;;15.00;99.90;;;;;;5033018;28;20765;-67
2024/02/22 12:42:15;;;;;;;0.70;0.50;;;14.90;99.90;;;;;;5032772;28;20174;-67
2024/02/22 12:44:41;;;;;;;0.80;0.50;;;14.90;99.90;;;;;;5032978;28;20425;-68
2024/02/22 12:47:11;;;;;;;1.00;0.60;;;15.00;99.90;;;;;;5032824;28;20188;-67